Big Pine Key, FL

12:58 PM EDT on September 26, 2016 (GMT -0400)
| | Change Station
Active Advisory: Areal Flood Advisory

Elev -9999 ft 0.00 °N, 0.00 °E | Updated

Thunderstorm
Thunderstorm
86 °F
Feels Like 93 °F
N
4
Wind Variable Wind from ESE
Gusts mph

Today
High -- | Low -- °F
--% Chance of Precip.
Yesterday
High -- | Low -- °F
Precip. -- in
Pressure 30.01 in
Visibility 10.0 miles
Clouds Scattered Clouds 2000 ft
Scattered Clouds 3000 ft
Overcast 8000 ft
Heat Index 93 °F
Dew Point 74 °F
Humidity 69%
Rainfall --
Snow Depth Not available.
7:15 AM 7:17 PM
Waning Crescent, 18% visible
METAR KNQX 261653Z 13006KT 10SM SCT020CB SCT030 OVC080 26/22 A3001 RMK AO2 RAE49 TSE09 SLP160 CB S STNRY T2 SET P0049 T02560217 $
Pressure 30.01 in
Visibility 10.0 miles
Clouds Scattered Clouds 2000 ft
Scattered Clouds 3000 ft
Overcast 8000 ft
Heat Index 93 °F
Dew Point 74 °F
Humidity 69%
Rainfall --
Snow Depth Not available.
7:15 AM 7:17 PM
Waning Crescent, 18% visible
METAR KNQX 261653Z 13006KT 10SM SCT020CB SCT030 OVC080 26/22 A3001 RMK AO2 RAE49 TSE09 SLP160 CB S STNRY T2 SET P0049 T02560217 $

10-Day Weather Forecast

Almanac

Astronomy

Sep. 26, 2016 Rise Set
Actual Time
Civil Twilight
Nautical Twilight
Astronomical Twilight
Moon
Length of Visible Light
Length of Day
Tomorrow will be .
, % of the Moon is Illuminated

Today's Extremes

State Highs State Lows

Community

WunderPhotos

Upload Photos

1,941,919 photos uploaded!

WunderBlog® & News

Nearby

Air Quality

  Air Quality AQ Index Pollutant
Not available.

Snow Depth

Station Depth Elevation

Earthquake Activity

City Distance Mag. Time & Date
Minimum magnitude displayed is 2.5.

Coastal Water Temperatures

Place Temperature

Stations

Nearby Weather Stations

Station Location Temp. Windchill Dew Point Humidity Wind Precip. Elev Updated Type
                   

Watches & Warnings

Areal Flood Advisory
Issued: 12:55 PM EDT Sep. 26, 2016 – National Weather Service

The National Weather Service in Key West has issued a

* Flood Advisory for...
Lower Keys in Monroe County in Florida...

* until 345 PM EDT

* at 1252 PM EDT... Doppler radar indicated heavy rain that will
cause local street flooding across much of the Lower
Keys... especially in poor drainage areas. Radar estimates of close
to one inch of rain has already fallen in several locations along
this stretch of islands.

This includes US 1 between mile markers 0 and 38.

A Flood Advisory means widespread ponding of water and street
flooding in urban areas is occurring or is imminent.

Excessive runoff from heavy rainfall will cause significant ponding
of water in urban areas and streets as well as other poor drainage
areas and low lying spots.

Lat... Lon 2452 8182 2454 8184 2458 8184 2463 8182
      2472 8157 2470 8125 2465 8124 2460 8141
      2461 8143 2459 8146 2459 8148 2460 8151
      2453 8172


04